Huvudsida
METAR-TAF:

METAR-TAF

Flygplatser :

Trollhättan-Vänersborgs flygplats

Trollhättan-Vänersborg, Sverige

latitud: 58-19N, longitud: 012-21E, höjd: 41 m

Aktuellt väderrapport

Denna rapport gjordes för 41 minuter sedan, klockan 09:50 UTC
Vind 3 kt från sydost
Temperatur -1°C
Fuktighet 100%
Tryck 1019 hPa
Sikt 10 km eller mer
Få moln på en höjd av 1300 ft
Spridda moln på en höjd av 2400 ft

METAR: ESGT 170950Z 13003KT 9999 FEW013 SCT024 M01/M01 Q1019

Tid: 11:31 (10:31 UTC)

Väderprognos

Denna rapport gjordes för 2 timmar och 1 minuter sedan, klockan 08:30 UTC
Prognos gäller från 17 kl. 09 UTC till 17 kl. 18 UTC
Vind 3 kt från väst
Sikt 10 km eller mer
Mulet på en höjd av 1800 ft
Sannolikhet 40%
från 17 kl. 09 UTC till 17 kl. 16 UTC
Brutna moln på en höjd av 900 ft

TAF: ESGT 170830Z 1709/1718 27003KT 9999 OVC018 PROB40 1709/1716 BKN009

Aktuella väderrapporter och prognoser från 4000 flygplatser (METAR- och TAF-rapporter).

De tillgängliga stationerna syns som gula och röda prickar på kartan.

För musen över prickarna för att se namnen på stationerna.

Klicka sedan för att få väderrapporter och prognoser.

För att ändra kartan: Klicka på de gröna knapparna med ett svart kors på för att zooma in; den gröna knappen med ett streck på för att zooma ut; eller på de gröna pilarna för angränsande kartor.


METAR-TAF: